createdAt,value
2022-12-31T00:01:25.450Z,10.52
2022-12-31T00:03:54.618Z,10.85
2022-12-31T00:06:30.739Z,10.55
2022-12-31T00:09:01.807Z,10.60
2022-12-31T00:11:30.966Z,10.93
2022-12-31T00:13:59.910Z,10.70
2022-12-31T00:16:36.772Z,10.73
2022-12-31T00:19:07.169Z,10.67
2022-12-31T00:21:35.918Z,10.45
2022-12-31T00:24:06.586Z,10.54
2022-12-31T00:26:36.198Z,10.84
2022-12-31T00:29:05.700Z,10.96
2022-12-31T00:31:37.057Z,10.93
2022-12-31T00:34:06.535Z,10.99
2022-12-31T00:36:37.485Z,11.16
2022-12-31T00:39:08.560Z,10.86
2022-12-31T00:41:36.930Z,10.92
2022-12-31T00:44:06.695Z,11.01
2022-12-31T00:49:03.848Z,10.90
2022-12-31T00:51:31.848Z,11.02
2022-12-31T00:54:01.830Z,10.94
2022-12-31T00:56:31.497Z,11.06
2022-12-31T00:59:00.797Z,10.94
2022-12-31T01:01:38.649Z,11.06
2022-12-31T01:04:11.235Z,11.08
2022-12-31T01:06:40.607Z,11.30
2022-12-31T01:09:10.229Z,11.07
2022-12-31T01:11:38.388Z,10.78
2022-12-31T01:14:11.606Z,10.81
2022-12-31T01:16:43.477Z,10.80
2022-12-31T01:19:15.825Z,10.68
2022-12-31T01:21:46.215Z,10.73
2022-12-31T01:24:15.388Z,10.55
2022-12-31T01:26:44.146Z,10.46
2022-12-31T01:29:13.992Z,10.65
2022-12-31T01:31:43.707Z,10.59
2022-12-31T01:34:12.232Z,10.73
2022-12-31T01:36:40.345Z,10.73
2022-12-31T01:39:12.612Z,10.68
2022-12-31T01:41:44.638Z,10.44
2022-12-31T01:44:14.035Z,10.10
2022-12-31T01:47:03.339Z,10.11
2022-12-31T01:49:41.418Z,9.92
2022-12-31T01:52:12.718Z,9.94
2022-12-31T01:54:57.723Z,9.91
2022-12-31T01:57:27.510Z,9.79
2022-12-31T01:59:56.808Z,9.55
2022-12-31T02:02:25.469Z,9.66
2022-12-31T02:04:57.408Z,9.81
2022-12-31T02:07:26.266Z,9.71
2022-12-31T02:09:54.919Z,10.11
2022-12-31T02:12:23.775Z,10.09
2022-12-31T02:14:54.755Z,9.98
2022-12-31T02:17:30.907Z,9.75
2022-12-31T02:20:31.597Z,9.94
2022-12-31T02:23:18.701Z,9.98
2022-12-31T02:26:05.777Z,10.08
2022-12-31T02:29:01.847Z,10.42
2022-12-31T02:31:37.455Z,10.39
2022-12-31T02:34:12.232Z,10.37
2022-12-31T02:36:47.465Z,10.01
2022-12-31T02:39:15.989Z,10.30
2022-12-31T02:41:51.993Z,10.18
2022-12-31T02:44:34.907Z,10.23
2022-12-31T02:47:09.037Z,10.04
2022-12-31T02:49:52.080Z,10.00
2022-12-31T02:52:44.816Z,10.04
2022-12-31T02:55:24.847Z,10.18
2022-12-31T02:58:13.827Z,10.15
2022-12-31T03:01:15.083Z,10.32
2022-12-31T03:03:43.544Z,9.99
2022-12-31T03:06:13.128Z,10.23
2022-12-31T03:09:01.389Z,10.11
2022-12-31T03:11:48.156Z,9.82
2022-12-31T03:14:17.770Z,9.87
2022-12-31T03:16:45.760Z,10.07
2022-12-31T03:19:32.858Z,10.22
2022-12-31T03:22:19.266Z,10.50
2022-12-31T03:25:06.099Z,10.57
2022-12-31T03:27:34.675Z,10.60
2022-12-31T03:30:04.617Z,10.55
2022-12-31T03:32:32.616Z,10.64
2022-12-31T03:35:00.952Z,10.70
2022-12-31T03:37:28.936Z,10.61
2022-12-31T03:39:57.324Z,10.16
2022-12-31T03:42:25.417Z,10.43
2022-12-31T03:44:53.849Z,10.58
2022-12-31T03:47:21.858Z,10.71
2022-12-31T03:49:50.328Z,10.74
2022-12-31T03:52:18.355Z,10.73
2022-12-31T03:54:46.725Z,10.69
2022-12-31T03:57:14.757Z,10.74
2022-12-31T03:59:43.086Z,10.69
2022-12-31T04:02:11.471Z,10.86
2022-12-31T04:04:41.178Z,10.82
2022-12-31T04:07:09.279Z,10.72
2022-12-31T04:09:37.677Z,10.68
2022-12-31T04:12:06.686Z,10.72
2022-12-31T04:14:35.292Z,10.66
2022-12-31T04:17:03.317Z,10.76
2022-12-31T04:19:31.766Z,10.62
2022-12-31T04:21:59.710Z,10.54
2022-12-31T04:24:28.109Z,10.59
2022-12-31T04:26:56.657Z,10.82
2022-12-31T04:29:27.027Z,10.90
2022-12-31T04:31:55.088Z,10.88
2022-12-31T04:34:29.984Z,10.78
2022-12-31T04:41:54.490Z,10.62
2022-12-31T04:44:22.909Z,10.66
2022-12-31T04:46:51.030Z,10.57
2022-12-31T04:49:19.618Z,10.69
2022-12-31T04:51:48.629Z,10.43
2022-12-31T04:54:17.002Z,10.54
2022-12-31T04:56:44.992Z,10.61
2022-12-31T04:59:13.432Z,10.59
2022-12-31T05:01:41.523Z,10.56
2022-12-31T05:04:09.984Z,10.21
2022-12-31T05:06:38.083Z,10.32
2022-12-31T05:09:06.449Z,10.53
2022-12-31T05:11:36.041Z,10.60
2022-12-31T05:14:04.707Z,10.50
2022-12-31T05:16:32.747Z,10.42
2022-12-31T05:19:01.042Z,10.52
2022-12-31T05:21:29.074Z,10.62
2022-12-31T05:23:57.425Z,10.57
2022-12-31T05:26:25.583Z,10.59
2022-12-31T05:28:55.716Z,10.66
2022-12-31T05:31:23.673Z,10.76
2022-12-31T05:33:53.043Z,10.97
2022-12-31T05:36:20.965Z,10.81
2022-12-31T05:38:49.307Z,10.97
2022-12-31T05:41:17.457Z,10.83
2022-12-31T05:43:45.876Z,10.81
2022-12-31T05:46:13.845Z,10.87
2022-12-31T05:48:42.205Z,10.84
2022-12-31T05:51:10.265Z,10.95
2022-12-31T05:53:38.584Z,10.80
2022-12-31T05:56:06.707Z,10.59
2022-12-31T05:58:35.074Z,10.52
2022-12-31T06:01:03.101Z,10.61
2022-12-31T06:03:32.779Z,10.81
2022-12-31T06:06:01.645Z,10.82
2022-12-31T06:08:30.113Z,10.60
2022-12-31T06:10:58.092Z,10.59
2022-12-31T06:13:27.937Z,10.72
2022-12-31T06:15:56.150Z,10.55
2022-12-31T06:18:24.581Z,10.55
2022-12-31T06:20:52.617Z,10.42
2022-12-31T06:23:20.839Z,10.42
2022-12-31T06:25:48.823Z,10.56
2022-12-31T06:28:20.586Z,10.72
2022-12-31T06:30:49.167Z,10.61
2022-12-31T06:33:17.555Z,10.52
2022-12-31T06:35:45.513Z,10.83
2022-12-31T06:38:13.859Z,10.77
2022-12-31T06:40:41.810Z,10.68
2022-12-31T06:43:10.093Z,10.75
2022-12-31T06:45:39.883Z,10.70
2022-12-31T06:48:08.512Z,10.64
2022-12-31T06:50:36.553Z,10.57
2022-12-31T06:53:05.023Z,10.67
2022-12-31T06:55:33.487Z,10.80
2022-12-31T06:58:04.433Z,10.76
2022-12-31T07:00:32.690Z,10.65
2022-12-31T07:03:43.548Z,10.51
2022-12-31T07:06:16.841Z,10.62
2022-12-31T07:08:51.920Z,10.76
2022-12-31T07:11:29.239Z,10.85
2022-12-31T07:14:17.637Z,10.85
2022-12-31T07:17:00.592Z,10.98
2022-12-31T07:19:41.939Z,10.66
2022-12-31T07:22:15.722Z,10.74
2022-12-31T07:24:45.119Z,10.73
2022-12-31T07:27:40.516Z,10.91
2022-12-31T07:30:13.601Z,10.91
2022-12-31T07:33:02.757Z,10.91
2022-12-31T07:35:37.038Z,10.99
2022-12-31T07:38:12.771Z,10.89
2022-12-31T07:41:18.428Z,11.14
2022-12-31T07:44:28.508Z,10.91
2022-12-31T07:47:00.424Z,11.14
2022-12-31T07:49:30.814Z,10.99
2022-12-31T07:51:59.700Z,11.00
2022-12-31T07:54:27.632Z,11.04
2022-12-31T07:56:55.939Z,11.17
2022-12-31T07:59:55.029Z,11.13
2022-12-31T08:02:47.666Z,11.34
2022-12-31T08:05:24.758Z,11.32
2022-12-31T08:08:04.708Z,11.45
2022-12-31T08:10:49.159Z,11.23
2022-12-31T08:13:18.187Z,11.52
2022-12-31T08:15:46.490Z,11.48
2022-12-31T08:18:14.878Z,11.52
2022-12-31T08:21:29.613Z,11.41
2022-12-31T08:24:11.151Z,11.33
2022-12-31T08:27:08.694Z,11.39
2022-12-31T08:29:47.482Z,11.50
2022-12-31T08:32:26.329Z,11.54
2022-12-31T08:35:21.423Z,11.55
2022-12-31T08:38:04.160Z,11.00
2022-12-31T08:40:52.255Z,10.73
2022-12-31T08:43:59.118Z,10.65
2022-12-31T08:46:52.140Z,10.74
2022-12-31T08:49:20.419Z,10.81
2022-12-31T08:51:48.939Z,11.01
2022-12-31T08:54:17.080Z,11.01
2022-12-31T08:57:15.236Z,11.07
2022-12-31T08:59:49.909Z,11.24
2022-12-31T09:02:48.250Z,11.29
2022-12-31T09:05:39.448Z,11.12
2022-12-31T09:08:33.871Z,10.89
2022-12-31T09:11:29.372Z,11.11
2022-12-31T09:14:18.425Z,11.40
2022-12-31T09:16:58.605Z,11.38
2022-12-31T09:19:28.262Z,11.41
2022-12-31T09:21:56.581Z,11.50
2022-12-31T09:24:26.253Z,11.57
2022-12-31T09:27:13.615Z,11.62
2022-12-31T09:30:05.071Z,11.73
2022-12-31T09:32:38.921Z,11.67
2022-12-31T09:35:08.175Z,11.77
2022-12-31T09:37:51.531Z,11.80
2022-12-31T09:40:29.934Z,11.78
2022-12-31T09:43:35.261Z,11.80
2022-12-31T09:46:12.678Z,11.80
2022-12-31T09:48:58.752Z,11.90
2022-12-31T09:51:47.028Z,11.87
2022-12-31T09:54:48.311Z,11.90
2022-12-31T09:57:40.503Z,11.92
2022-12-31T10:00:18.832Z,12.11
2022-12-31T10:03:08.397Z,11.92
2022-12-31T10:06:14.237Z,11.90
2022-12-31T10:09:31.263Z,12.00
2022-12-31T10:12:02.125Z,12.09
2022-12-31T10:14:45.359Z,12.27
2022-12-31T10:17:31.609Z,12.06
2022-12-31T10:20:27.252Z,12.20
2022-12-31T10:23:22.732Z,12.01
2022-12-31T10:26:12.101Z,12.20
2022-12-31T10:28:53.581Z,12.08
2022-12-31T10:31:52.279Z,12.28
2022-12-31T10:34:31.812Z,12.08
2022-12-31T10:37:15.207Z,12.26
2022-12-31T10:40:15.322Z,12.41
2022-12-31T10:43:05.112Z,12.59
2022-12-31T10:45:51.389Z,12.32
2022-12-31T10:48:38.464Z,12.50
2022-12-31T10:51:09.452Z,12.51
2022-12-31T10:53:52.691Z,12.57
2022-12-31T10:56:23.751Z,12.51
2022-12-31T10:59:04.141Z,12.66
2022-12-31T11:01:38.203Z,12.61
2022-12-31T11:04:31.239Z,12.69
2022-12-31T11:07:26.621Z,12.76
2022-12-31T11:10:33.232Z,12.61
2022-12-31T11:13:34.781Z,12.82
2022-12-31T11:16:18.518Z,12.83
2022-12-31T11:19:31.433Z,12.96
2022-12-31T11:22:08.780Z,12.89
2022-12-31T11:25:02.239Z,13.02
2022-12-31T11:27:51.489Z,13.04
2022-12-31T11:31:16.920Z,12.98
2022-12-31T11:34:10.910Z,13.09
2022-12-31T11:36:48.494Z,12.99
2022-12-31T11:39:50.673Z,13.02
2022-12-31T11:42:36.867Z,13.01
2022-12-31T11:45:15.846Z,13.06
2022-12-31T11:51:28.880Z,12.93
2022-12-31T11:54:25.782Z,13.14
2022-12-31T11:57:35.752Z,12.95
2022-12-31T12:00:09.713Z,13.13
2022-12-31T12:02:49.357Z,13.19
2022-12-31T12:05:20.602Z,13.01
2022-12-31T12:07:50.379Z,12.93
2022-12-31T12:10:36.551Z,13.18
2022-12-31T12:13:14.742Z,13.34
2022-12-31T12:15:47.096Z,13.52
2022-12-31T12:18:46.513Z,13.58
2022-12-31T12:21:21.850Z,13.62
2022-12-31T12:23:58.951Z,13.46
2022-12-31T12:26:33.181Z,13.50
2022-12-31T12:29:11.401Z,13.59
2022-12-31T12:31:39.790Z,13.39
2022-12-31T12:34:26.702Z,13.57
2022-12-31T12:36:55.219Z,13.66
2022-12-31T12:39:30.502Z,13.67
2022-12-31T12:42:06.220Z,13.67
2022-12-31T12:44:36.014Z,13.63
2022-12-31T12:47:07.319Z,13.35
2022-12-31T12:49:42.799Z,13.59
2022-12-31T12:52:32.459Z,13.58
2022-12-31T12:55:32.009Z,13.66
2022-12-31T12:58:19.154Z,13.78
2022-12-31T13:01:04.311Z,13.85
2022-12-31T13:04:23.792Z,13.90
2022-12-31T13:07:08.239Z,13.99
2022-12-31T13:09:58.465Z,14.09
2022-12-31T13:13:25.170Z,14.06
2022-12-31T13:16:00.653Z,14.06
2022-12-31T13:18:39.668Z,14.14
2022-12-31T13:21:36.177Z,14.17
2022-12-31T13:24:23.851Z,14.02
2022-12-31T13:27:12.226Z,14.11
2022-12-31T13:29:44.921Z,13.97
2022-12-31T13:32:19.808Z,13.98
2022-12-31T13:34:55.471Z,13.97
2022-12-31T13:37:42.795Z,13.61
2022-12-31T13:40:24.130Z,13.58
2022-12-31T13:43:08.356Z,13.61
2022-12-31T13:45:43.593Z,13.66
2022-12-31T13:48:20.326Z,13.67
2022-12-31T13:50:57.960Z,13.74
2022-12-31T13:53:35.078Z,13.77
2022-12-31T13:56:15.202Z,13.98
2022-12-31T13:58:57.430Z,13.88
2022-12-31T14:01:34.409Z,13.71
2022-12-31T14:04:33.857Z,13.56
2022-12-31T14:07:06.750Z,13.83
2022-12-31T14:09:36.227Z,13.80
2022-12-31T14:12:07.413Z,13.86
2022-12-31T14:14:48.878Z,13.82
2022-12-31T14:17:43.715Z,13.61
2022-12-31T14:20:42.398Z,13.52
2022-12-31T14:23:48.077Z,13.41
2022-12-31T14:26:30.499Z,13.54
2022-12-31T14:29:02.872Z,13.68
2022-12-31T14:31:49.293Z,13.60
2022-12-31T14:34:40.686Z,13.38
2022-12-31T14:37:24.459Z,13.42
2022-12-31T14:40:00.785Z,13.49
2022-12-31T14:42:37.179Z,13.24
2022-12-31T14:45:23.948Z,13.21
2022-12-31T14:48:01.585Z,13.22
2022-12-31T14:50:34.140Z,12.92
2022-12-31T14:53:06.485Z,13.24
2022-12-31T14:55:40.972Z,13.13
2022-12-31T14:58:28.173Z,13.30
2022-12-31T15:01:01.103Z,13.42
2022-12-31T15:03:31.887Z,13.37
2022-12-31T15:06:24.902Z,13.40
2022-12-31T15:09:08.277Z,13.26
2022-12-31T15:11:39.543Z,13.28
2022-12-31T15:14:22.275Z,13.20
2022-12-31T15:17:02.852Z,13.36
2022-12-31T15:20:05.035Z,13.11
2022-12-31T15:22:40.135Z,13.22
2022-12-31T15:25:30.184Z,13.11
2022-12-31T15:28:03.611Z,13.28
2022-12-31T15:30:37.066Z,13.15
2022-12-31T15:33:08.655Z,13.08
2022-12-31T15:35:54.789Z,13.07
2022-12-31T15:38:34.344Z,13.04
2022-12-31T15:41:19.090Z,12.86
2022-12-31T15:44:19.943Z,12.98
2022-12-31T15:47:15.205Z,12.84
2022-12-31T15:49:47.588Z,12.45
2022-12-31T15:52:52.315Z,12.75
2022-12-31T15:55:26.653Z,12.74
2022-12-31T15:58:02.086Z,12.49
2022-12-31T16:00:46.738Z,12.79
2022-12-31T16:03:24.630Z,12.74
2022-12-31T16:05:59.104Z,12.57
2022-12-31T16:08:31.839Z,12.39
2022-12-31T16:11:00.932Z,12.43
2022-12-31T16:13:30.343Z,12.40
2022-12-31T16:16:05.530Z,12.51
2022-12-31T16:18:40.814Z,12.61
2022-12-31T16:21:27.864Z,12.51
2022-12-31T16:23:58.139Z,12.65
2022-12-31T16:26:33.434Z,12.79
2022-12-31T16:29:04.544Z,12.86
2022-12-31T16:31:33.270Z,12.81
2022-12-31T16:34:14.197Z,12.92
2022-12-31T16:36:42.780Z,12.98
2022-12-31T16:39:25.187Z,13.05
2022-12-31T16:42:20.311Z,13.11
2022-12-31T16:44:50.588Z,12.85
2022-12-31T16:47:40.515Z,12.83
2022-12-31T16:50:21.233Z,12.43
2022-12-31T16:53:04.445Z,12.75
2022-12-31T16:55:34.675Z,12.75
2022-12-31T16:58:17.734Z,12.73
2022-12-31T17:00:48.100Z,12.83
2022-12-31T17:03:23.915Z,12.83
2022-12-31T17:06:21.499Z,12.96
2022-12-31T17:08:55.641Z,12.97
2022-12-31T17:11:41.810Z,12.89
2022-12-31T17:14:09.922Z,12.84
2022-12-31T17:17:01.631Z,13.08
2022-12-31T17:19:36.828Z,13.06
2022-12-31T17:22:05.791Z,13.11
2022-12-31T17:24:36.213Z,13.15
2022-12-31T17:27:06.590Z,13.20
2022-12-31T17:29:35.444Z,13.12
2022-12-31T17:32:06.882Z,13.11
2022-12-31T17:34:40.280Z,13.11
2022-12-31T17:37:13.024Z,13.06
2022-12-31T17:39:49.580Z,13.19
2022-12-31T17:42:27.189Z,13.15
2022-12-31T17:45:08.560Z,13.01
2022-12-31T17:47:39.781Z,13.00
2022-12-31T17:50:28.411Z,13.13
2022-12-31T17:52:59.661Z,13.14
2022-12-31T17:55:29.211Z,13.15
2022-12-31T17:57:58.412Z,13.16
2022-12-31T18:00:27.952Z,13.09
2022-12-31T18:02:56.121Z,13.22
2022-12-31T18:05:25.591Z,13.15
2022-12-31T18:07:54.414Z,13.09
2022-12-31T18:10:25.502Z,13.13
2022-12-31T18:12:53.854Z,13.16
2022-12-31T18:15:24.240Z,13.30
2022-12-31T18:17:52.317Z,13.12
2022-12-31T18:20:22.016Z,13.17
2022-12-31T18:22:50.809Z,13.21
2022-12-31T18:25:24.135Z,13.10
2022-12-31T18:27:52.966Z,13.20
2022-12-31T18:30:23.590Z,13.29
2022-12-31T18:32:51.786Z,13.30
2022-12-31T18:35:57.762Z,13.29
2022-12-31T18:38:14.461Z,13.29
2022-12-31T18:40:46.990Z,13.13
2022-12-31T18:43:17.687Z,13.19
2022-12-31T18:45:47.721Z,13.23
2022-12-31T18:48:16.392Z,13.08
2022-12-31T18:50:46.999Z,13.29
2022-12-31T18:53:20.823Z,13.25
2022-12-31T18:55:51.991Z,13.24
2022-12-31T18:58:20.468Z,13.26
2022-12-31T19:00:51.084Z,13.26
2022-12-31T19:03:23.391Z,13.23
2022-12-31T19:05:52.669Z,13.29
2022-12-31T19:08:22.500Z,13.33
2022-12-31T19:10:52.338Z,13.29
2022-12-31T19:13:21.347Z,13.37
2022-12-31T19:15:52.943Z,13.22
2022-12-31T19:18:20.868Z,13.13
2022-12-31T19:20:49.317Z,13.15
2022-12-31T19:23:20.739Z,13.23
2022-12-31T19:25:49.757Z,13.20
2022-12-31T19:28:21.529Z,13.34
2022-12-31T19:30:50.065Z,13.24
2022-12-31T19:33:18.995Z,13.17
2022-12-31T19:35:47.482Z,13.09
2022-12-31T19:38:24.685Z,12.92
2022-12-31T19:40:54.275Z,12.91
2022-12-31T19:43:23.753Z,13.05
2022-12-31T19:45:53.271Z,12.86
2022-12-31T19:48:28.753Z,12.70
2022-12-31T19:51:00.519Z,12.77
2022-12-31T19:53:29.000Z,12.80
2022-12-31T19:55:58.357Z,12.83
2022-12-31T19:58:27.442Z,12.92
2022-12-31T20:01:02.319Z,12.89
2022-12-31T20:03:33.006Z,12.74
2022-12-31T20:06:07.702Z,12.83
2022-12-31T20:08:37.368Z,12.88
2022-12-31T20:11:14.794Z,12.76
2022-12-31T20:13:43.135Z,12.95
2022-12-31T20:16:15.313Z,12.86
2022-12-31T20:18:44.824Z,12.86
2022-12-31T20:21:19.187Z,12.81
2022-12-31T20:23:48.439Z,12.89
2022-12-31T20:26:17.730Z,12.92
2022-12-31T20:28:46.005Z,13.05
2022-12-31T20:31:17.330Z,12.94
2022-12-31T20:33:45.817Z,12.97
2022-12-31T20:36:16.354Z,12.94
2022-12-31T20:38:45.573Z,12.94
2022-12-31T20:41:20.059Z,12.80
2022-12-31T20:43:49.493Z,12.95
2022-12-31T20:46:25.780Z,12.83
2022-12-31T20:48:57.359Z,12.81
2022-12-31T20:51:28.087Z,12.82
2022-12-31T20:54:03.267Z,12.84
2022-12-31T20:56:32.774Z,12.92
2022-12-31T20:59:03.513Z,12.97
2022-12-31T21:01:55.158Z,13.00
2022-12-31T21:04:20.611Z,12.88
2022-12-31T21:06:48.735Z,12.84
2022-12-31T21:09:17.064Z,12.81
2022-12-31T21:12:03.329Z,12.90
2022-12-31T21:14:31.715Z,12.80
2022-12-31T21:16:59.648Z,12.73
2022-12-31T21:19:29.279Z,12.79
2022-12-31T21:21:57.265Z,12.76
2022-12-31T21:24:25.513Z,12.72
2022-12-31T21:26:57.044Z,12.74
2022-12-31T21:29:31.240Z,12.94
2022-12-31T21:32:02.158Z,12.75
2022-12-31T21:34:30.560Z,12.77
2022-12-31T21:36:58.503Z,12.97
2022-12-31T21:39:26.783Z,12.87
2022-12-31T21:41:54.912Z,12.89
2022-12-31T21:44:25.339Z,12.84
2022-12-31T21:47:39.489Z,12.89
2022-12-31T21:50:09.133Z,12.82
2022-12-31T21:52:37.186Z,12.80
2022-12-31T21:55:24.727Z,12.90
2022-12-31T21:58:24.660Z,12.90
2022-12-31T22:01:00.920Z,12.95
2022-12-31T22:03:29.485Z,12.86
2022-12-31T22:05:59.964Z,12.88
2022-12-31T22:08:30.528Z,12.87
2022-12-31T22:10:58.853Z,12.87
2022-12-31T22:13:26.907Z,12.82
2022-12-31T22:16:03.972Z,12.86
2022-12-31T22:18:40.882Z,12.83
2022-12-31T22:21:18.135Z,12.98
2022-12-31T22:23:50.140Z,13.01
2022-12-31T22:26:21.434Z,12.85
2022-12-31T22:28:50.146Z,12.97
2022-12-31T22:31:24.743Z,12.87
2022-12-31T22:33:53.557Z,12.89
2022-12-31T22:36:23.306Z,12.95
2022-12-31T22:38:55.397Z,12.87
2022-12-31T22:41:26.534Z,12.82
2022-12-31T22:44:03.134Z,12.91
2022-12-31T22:46:33.923Z,12.86
2022-12-31T22:49:04.244Z,12.72
2022-12-31T22:51:57.504Z,12.64
2022-12-31T22:54:21.237Z,12.63
2022-12-31T22:56:50.878Z,12.62
2022-12-31T22:59:19.747Z,12.68
2022-12-31T23:01:48.233Z,12.45
2022-12-31T23:04:16.778Z,12.54
2022-12-31T23:06:45.319Z,12.59
2022-12-31T23:09:34.924Z,12.62
2022-12-31T23:12:06.241Z,12.52
2022-12-31T23:14:52.688Z,12.24
2022-12-31T23:17:46.002Z,12.43
2022-12-31T23:20:35.718Z,12.12
2022-12-31T23:23:11.956Z,12.04
2022-12-31T23:25:49.705Z,12.29
2022-12-31T23:28:25.067Z,12.13
2022-12-31T23:30:53.341Z,12.06
2022-12-31T23:33:24.987Z,12.29
2022-12-31T23:36:07.043Z,12.24
2022-12-31T23:38:36.405Z,12.26
2022-12-31T23:41:15.251Z,12.37
2022-12-31T23:43:44.205Z,12.10
2022-12-31T23:46:13.737Z,12.24
2022-12-31T23:48:42.855Z,12.23
2022-12-31T23:51:10.766Z,12.08
2022-12-31T23:53:39.152Z,12.42
2022-12-31T23:56:14.891Z,12.44
2022-12-31T23:58:44.930Z,12.44
